Time;durP1;ratioP1;P1;durP2;ratioP2;P2;SDS_P1;SDS_P2;PMS_P1;PMS_P2;Temp;Humidity;BMP_temperature;BMP_pressure;BME280_temperature;BME280_humidity;BME280_pressure;Samples;Min_cycle;Max_cycle;Signal;HPM_P1;HPM_P2
2024/02/03 00:05:57;;;;;;;0.40;0.10;;;8.10;89.00;;;;;;20681409;28;20072;-45
2024/02/03 00:15:59;;;;;;;0.20;0.00;;;8.10;89.40;;;;;;20681395;28;21004;-44
2024/02/03 00:26:01;;;;;;;0.00;0.00;;;8.20;89.00;;;;;;20681614;28;20045;-46
2024/02/03 00:36:04;;;;;;;0.52;0.00;;;8.20;89.10;;;;;;20678293;28;20072;-44
2024/02/03 00:46:06;;;;;;;0.05;0.00;;;8.50;88.40;;;;;;20679844;28;20029;-42
2024/02/03 00:56:08;;;;;;;0.10;0.00;;;8.30;89.00;;;;;;20679786;28;20040;-46
2024/02/03 01:06:10;;;;;;;0.08;0.00;;;8.30;89.20;;;;;;20677579;28;20116;-44
2024/02/03 01:16:12;;;;;;;0.73;0.00;;;8.50;88.50;;;;;;20676565;28;21361;-43
2024/02/03 01:26:15;;;;;;;0.03;0.00;;;8.50;87.90;;;;;;20675493;28;20158;-44
2024/02/03 01:36:17;;;;;;;0.10;0.00;;;8.50;87.30;;;;;;20675461;28;20724;-44
2024/02/03 01:46:19;;;;;;;0.38;0.10;;;8.10;88.70;;;;;;20673226;28;20041;-44
2024/02/03 01:56:21;;;;;;;0.20;0.03;;;8.10;89.10;;;;;;20674401;28;20061;-44
2024/02/03 02:06:23;;;;;;;0.10;0.05;;;8.40;87.30;;;;;;20673877;28;20072;-43
2024/02/03 02:16:28;;;;;;;0.00;0.00;;;8.30;87.80;;;;;;20679675;28;20166;-45
2024/02/03 02:26:30;;;;;;;0.00;0.00;;;7.60;88.70;;;;;;20689500;28;20065;-43
2024/02/03 02:36:35;;;;;;;0.08;0.00;;;8.00;87.90;;;;;;20688332;28;20123;-43
2024/02/03 02:46:37;;;;;;;0.10;0.10;;;7.50;88.90;;;;;;20686691;28;21086;-43
2024/02/03 02:56:39;;;;;;;0.15;0.00;;;7.90;88.00;;;;;;20691676;28;20135;-44
2024/02/03 03:06:41;;;;;;;0.00;0.00;;;7.80;88.30;;;;;;20686387;28;20107;-43
2024/02/03 03:16:42;;;;;;;0.43;0.00;;;7.30;89.70;;;;;;20685174;28;20162;-43
2024/02/03 03:26:44;;;;;;;0.10;0.10;;;6.90;90.40;;;;;;20683205;28;20068;-44
2024/02/03 03:36:46;;;;;;;0.35;0.00;;;7.80;88.30;;;;;;20684339;28;20037;-46
2024/02/03 03:46:48;;;;;;;0.35;0.00;;;7.80;87.70;;;;;;20684896;28;21238;-46
2024/02/03 03:56:50;;;;;;;0.15;0.10;;;7.80;87.70;;;;;;20684104;28;20072;-44
2024/02/03 04:06:52;;;;;;;0.10;0.10;;;7.80;87.70;;;;;;20681754;28;20057;-44
2024/02/03 04:16:53;;;;;;;0.10;0.10;;;7.50;89.00;;;;;;20680738;28;20973;-45
2024/02/03 04:26:55;;;;;;;0.30;0.08;;;6.80;90.60;;;;;;20681126;28;20072;-43
2024/02/03 04:36:57;;;;;;;0.10;0.00;;;6.60;90.90;;;;;;20679816;28;20069;-44
2024/02/03 04:47:03;;;;;;;0.13;0.10;;;7.10;90.30;;;;;;20676742;28;20169;-47
2024/02/03 04:57:07;;;;;;;0.85;0.00;;;7.20;89.90;;;;;;20678156;28;20033;-45
2024/02/03 05:07:09;;;;;;;0.32;0.00;;;7.60;88.80;;;;;;20679134;28;20064;-44
2024/02/03 05:17:12;;;;;;;0.00;0.00;;;7.50;88.50;;;;;;20673304;28;20106;-44
2024/02/03 05:27:14;;;;;;;0.20;0.00;;;7.40;89.00;;;;;;20678453;28;20036;-44
2024/02/03 05:37:15;;;;;;;0.10;0.10;;;7.00;90.20;;;;;;20677858;28;20044;-44
2024/02/03 05:47:17;;;;;;;0.10;0.00;;;7.20;89.90;;;;;;20676031;28;20041;-43
2024/02/03 05:57:19;;;;;;;0.00;0.00;;;7.40;89.40;;;;;;20673243;28;20047;-44
2024/02/03 06:07:22;;;;;;;0.52;0.10;;;7.10;90.70;;;;;;20672801;28;20073;-44
2024/02/03 06:17:23;;;;;;;0.75;0.10;;;6.80;90.70;;;;;;20674676;28;20789;-45
2024/02/03 06:27:25;;;;;;;0.10;0.00;;;6.70;91.30;;;;;;20673808;28;20044;-45
2024/02/03 06:37:27;;;;;;;0.00;0.00;;;6.30;91.70;;;;;;20674311;28;20063;-43
2024/02/03 06:47:29;;;;;;;0.52;0.10;;;6.00;92.00;;;;;;20671479;28;20045;-43
2024/02/03 06:57:31;;;;;;;0.43;0.10;;;6.70;91.40;;;;;;20671580;28;20045;-43
2024/02/03 07:07:33;;;;;;;0.00;0.00;;;6.70;91.60;;;;;;20679779;28;20126;-44
2024/02/03 07:17:35;;;;;;;0.20;0.10;;;6.30;92.00;;;;;;20680184;28;20053;-45
2024/02/03 07:27:37;;;;;;;1.73;1.05;;;6.20;92.50;;;;;;20679335;28;20134;-44
2024/02/03 07:37:39;;;;;;;0.00;0.00;;;6.10;92.70;;;;;;20681732;28;20090;-44
2024/02/03 07:47:41;;;;;;;0.93;0.65;;;6.40;92.30;;;;;;20680577;28;20033;-46
2024/02/03 07:57:42;;;;;;;1.27;0.57;;;7.10;91.90;;;;;;20678670;28;20068;-45
2024/02/03 08:07:44;;;;;;;10.18;6.55;;;8.30;90.50;;;;;;20676878;28;20122;-47
2024/02/03 08:17:46;;;;;;;0.13;0.10;;;9.10;89.00;;;;;;20661545;28;20077;-45
2024/02/03 08:27:48;;;;;;;0.70;0.10;;;10.50;84.60;;;;;;20660745;28;20221;-47
2024/02/03 08:37:50;;;;;;;0.68;0.10;;;11.60;83.20;;;;;;20675511;28;20715;-47
2024/02/03 08:47:52;;;;;;;0.30;0.08;;;12.70;80.00;;;;;;20669544;28;20175;-45
2024/02/03 08:57:54;;;;;;;0.03;0.00;;;13.70;78.50;;;;;;20675312;28;20048;-46
2024/02/03 09:07:56;;;;;;;0.40;0.00;;;15.00;74.70;;;;;;20673094;28;20681;-46
2024/02/03 09:17:58;;;;;;;0.00;0.00;;;16.20;72.00;;;;;;20669817;28;20048;-48
2024/02/03 09:28:00;;;;;;;0.08;0.00;;;16.80;71.10;;;;;;20652665;28;21061;-51
2024/02/03 09:38:02;;;;;;;0.10;0.03;;;17.10;70.00;;;;;;20673507;28;20138;-49
2024/02/03 09:48:05;;;;;;;0.20;0.10;;;17.80;69.40;;;;;;20668835;28;20098;-51
2024/02/03 09:58:08;;;;;;;12.27;4.05;;;18.10;68.30;;;;;;20672543;28;20041;-48
2024/02/03 10:08:10;;;;;;;0.10;0.10;;;18.10;68.00;;;;;;20669155;28;20110;-46
2024/02/03 10:18:13;;;;;;;0.25;0.15;;;17.70;70.00;;;;;;20669518;28;20107;-46
2024/02/03 10:28:18;;;;;;;0.32;0.10;;;17.80;68.70;;;;;;20636465;28;20166;-46
2024/02/03 10:38:20;;;;;;;0.20;0.13;;;17.80;68.60;;;;;;20658437;28;20045;-47
2024/02/03 10:48:25;;;;;;;0.50;0.20;;;17.90;69.10;;;;;;20683590;28;20083;-47
2024/02/03 10:58:29;;;;;;;0.20;0.20;;;17.70;70.50;;;;;;20681522;28;20037;-46
2024/02/03 11:08:34;;;;;;;0.28;0.20;;;17.90;70.10;;;;;;20676350;28;20068;-49
2024/02/03 11:18:42;;;;;;;0.45;0.20;;;18.20;69.50;;;;;;20679006;28;20072;-47
2024/02/03 11:28:47;;;;;;;0.20;0.15;;;17.90;69.70;;;;;;20679023;28;20080;-46
2024/02/03 11:38:50;;;;;;;0.20;0.20;;;18.30;68.50;;;;;;20679344;28;20117;-46
2024/02/03 11:48:56;;;;;;;0.30;0.20;;;18.70;68.60;;;;;;20662289;28;20064;-46
2024/02/03 11:58:58;;;;;;;0.30;0.10;;;18.90;68.30;;;;;;20643120;28;20090;-48
2024/02/03 12:09:02;;;;;;;2.58;0.30;;;19.00;67.40;;;;;;20661906;28;20033;-47
2024/02/03 12:19:09;;;;;;;0.50;0.20;;;18.90;67.90;;;;;;20675069;28;20084;-48
2024/02/03 12:29:14;;;;;;;1.95;0.20;;;18.70;67.50;;;;;;20463337;28;20172;-46
2024/02/03 12:39:16;;;;;;;0.60;0.20;;;18.70;65.80;;;;;;20462348;28;20070;-47
2024/02/03 12:49:20;;;;;;;0.40;0.30;;;18.50;66.90;;;;;;20417658;28;20137;-46
2024/02/03 12:59:22;;;;;;;0.47;0.38;;;18.70;68.40;;;;;;20601421;28;20138;-47
2024/02/03 13:09:29;;;;;;;1.58;0.40;;;18.60;69.00;;;;;;20564536;28;20125;-47
2024/02/03 13:19:44;;;;;;;2.17;0.50;;;18.30;68.10;;;;;;20652754;28;20102;-46
2024/02/03 13:29:46;;;;;;;1.88;0.70;;;17.90;69.40;;;;;;20667939;28;20045;-45
2024/02/03 13:39:49;;;;;;;1.45;0.60;;;17.30;68.70;;;;;;20671293;28;20112;-44
2024/02/03 13:49:53;;;;;;;1.60;0.40;;;16.40;70.00;;;;;;20669999;28;20104;-46
2024/02/03 13:59:57;;;;;;;0.90;0.60;;;16.00;71.10;;;;;;20673450;28;20068;-44
2024/02/03 14:10:01;;;;;;;0.70;0.40;;;15.40;70.70;;;;;;20672933;28;20114;-45
2024/02/03 14:20:05;;;;;;;1.17;0.50;;;15.00;72.20;;;;;;20681124;28;20072;-46
2024/02/03 14:30:08;;;;;;;1.52;0.70;;;14.40;73.90;;;;;;20681486;28;20306;-45
2024/02/03 14:40:10;;;;;;;1.30;0.75;;;14.00;73.00;;;;;;20684687;28;20138;-45
2024/02/03 14:50:12;;;;;;;0.82;0.50;;;13.50;73.00;;;;;;20683622;28;20095;-44
2024/02/03 15:00:16;;;;;;;1.38;0.70;;;13.00;73.90;;;;;;20684226;28;21230;-46
2024/02/03 15:10:22;;;;;;;0.77;0.60;;;12.90;76.00;;;;;;20684696;28;20134;-46
2024/02/03 15:20:24;;;;;;;0.35;0.10;;;12.80;74.90;;;;;;20676283;28;21528;-43
2024/02/03 15:30:25;;;;;;;0.38;0.05;;;14.00;60.80;;;;;;20678857;28;20068;-44
2024/02/03 15:40:27;;;;;;;0.20;0.10;;;14.50;60.00;;;;;;20680608;28;20041;-44
2024/02/03 15:50:32;;;;;;;0.20;0.10;;;14.00;60.10;;;;;;20677803;28;20605;-45
2024/02/03 16:00:34;;;;;;;0.10;0.10;;;14.00;59.60;;;;;;20676823;28;20140;-45
2024/02/03 16:10:39;;;;;;;0.10;0.10;;;14.00;60.40;;;;;;20680173;28;20119;-44
2024/02/03 16:20:40;;;;;;;0.47;0.17;;;14.10;60.10;;;;;;20672135;28;20040;-46
2024/02/03 16:30:45;;;;;;;0.30;0.17;;;14.00;59.90;;;;;;20674310;28;20144;-45
2024/02/03 16:40:50;;;;;;;0.22;0.10;;;14.10;57.70;;;;;;20675131;28;20069;-45
2024/02/03 16:50:52;;;;;;;0.10;0.10;;;14.20;58.50;;;;;;20677482;28;20972;-45
2024/02/03 17:00:53;;;;;;;0.40;0.10;;;14.10;57.50;;;;;;20677980;28;20036;-44
2024/02/03 17:10:55;;;;;;;0.00;0.00;;;14.00;57.00;;;;;;20674952;28;20083;-46
2024/02/03 17:20:58;;;;;;;0.00;0.00;;;13.80;58.60;;;;;;20656229;28;20072;-43
2024/02/03 17:31:03;;;;;;;0.20;0.10;;;13.60;57.70;;;;;;20673888;28;20530;-45
2024/02/03 17:41:06;;;;;;;0.10;0.00;;;13.90;58.60;;;;;;20673864;28;20064;-46
2024/02/03 17:51:12;;;;;;;0.38;0.10;;;13.50;57.80;;;;;;20675025;28;20088;-44
2024/02/03 18:01:13;;;;;;;0.40;0.10;;;13.70;57.00;;;;;;20667920;28;20065;-44
2024/02/03 18:11:15;;;;;;;0.10;0.00;;;13.40;57.50;;;;;;20669133;28;20125;-45
2024/02/03 18:21:17;;;;;;;0.20;0.10;;;13.20;58.50;;;;;;20674445;28;20087;-48
2024/02/03 18:31:19;;;;;;;0.63;0.00;;;12.30;61.20;;;;;;20671756;28;21222;-46
2024/02/03 18:41:20;;;;;;;1.90;0.95;;;12.10;61.10;;;;;;20673009;28;20068;-44
2024/02/03 18:51:22;;;;;;;1.98;0.30;;;11.10;62.30;;;;;;20673404;28;20175;-43
2024/02/03 19:01:24;;;;;;;0.90;0.10;;;10.80;62.70;;;;;;20683271;28;20928;-45
2024/02/03 19:11:28;;;;;;;0.10;0.00;;;11.20;62.50;;;;;;20684987;28;20108;-46
2024/02/03 19:21:30;;;;;;;0.28;0.13;;;10.60;65.70;;;;;;20668101;28;21353;-44
2024/02/03 19:31:32;;;;;;;1.58;0.65;;;9.90;66.30;;;;;;20682366;28;21173;-44
2024/02/03 19:41:35;;;;;;;1.45;0.80;;;9.40;67.40;;;;;;20637538;28;20135;-44
2024/02/03 19:51:36;;;;;;;0.20;0.10;;;9.10;67.00;;;;;;20580687;28;20058;-43
2024/02/03 20:01:38;;;;;;;0.22;0.10;;;8.90;67.70;;;;;;20587580;28;20089;-46
2024/02/03 20:11:40;;;;;;;0.10;0.10;;;8.80;70.10;;;;;;20680091;28;20100;-45
2024/02/03 20:21:43;;;;;;;0.65;0.08;;;8.70;70.40;;;;;;20659880;28;20598;-44
2024/02/03 20:31:45;;;;;;;0.30;0.10;;;8.60;70.00;;;;;;20682224;28;20145;-43
2024/02/03 20:41:49;;;;;;;0.45;0.20;;;8.70;71.20;;;;;;20680324;28;20584;-43
2024/02/03 20:51:52;;;;;;;0.30;0.10;;;9.50;71.50;;;;;;20678895;28;20061;-43
2024/02/03 21:01:54;;;;;;;12.57;6.88;;;9.20;71.50;;;;;;20673769;28;20157;-43
2024/02/03 21:11:56;;;;;;;3.00;1.40;;;9.20;72.00;;;;;;20677560;28;20506;-45
2024/02/03 21:21:58;;;;;;;5.80;3.72;;;9.40;72.90;;;;;;20418168;28;20077;-43
2024/02/03 21:31:59;;;;;;;1.70;1.30;;;8.80;73.70;;;;;;20416695;28;20108;-44
2024/02/03 21:42:02;;;;;;;1.00;0.63;;;8.20;76.80;;;;;;20420676;28;20148;-43
2024/02/03 21:52:08;;;;;;;0.40;0.22;;;7.90;76.10;;;;;;20620642;28;20099;-43
2024/02/03 22:02:11;;;;;;;0.10;0.10;;;7.90;76.00;;;;;;20675614;28;20036;-43
2024/02/03 22:12:12;;;;;;;0.20;0.10;;;7.90;76.50;;;;;;20674573;28;20430;-45
2024/02/03 22:22:14;;;;;;;3.70;2.60;;;8.90;73.60;;;;;;20673614;28;21665;-43
2024/02/03 22:32:18;;;;;;;0.73;0.32;;;9.00;73.50;;;;;;20678286;28;20154;-45
2024/02/03 22:42:20;;;;;;;0.00;0.00;;;8.70;71.80;;;;;;20481001;28;20070;-44
2024/02/03 22:52:22;;;;;;;0.20;0.08;;;8.90;71.50;;;;;;20495602;28;20246;-42
2024/02/03 23:02:27;;;;;;;0.40;0.10;;;9.40;66.30;;;;;;20500615;28;20258;-44
2024/02/03 23:12:29;;;;;;;0.10;0.05;;;10.60;68.60;;;;;;20525959;28;20081;-44
2024/02/03 23:22:31;;;;;;;0.28;0.10;;;10.50;68.90;;;;;;20685215;28;20498;-45
2024/02/03 23:32:38;;;;;;;0.15;0.05;;;10.40;69.10;;;;;;20665740;28;20110;-44
2024/02/03 23:42:40;;;;;;;0.30;0.10;;;9.90;70.30;;;;;;20686602;28;20041;-44
2024/02/03 23:52:41;;;;;;;0.10;0.10;;;9.50;70.50;;;;;;20686035;28;21152;-44
